Terminal Aerodrome Forecast
Issued by NWS Grand Forks, ND

Home | Current Version | Previous Version | Text Only | Print | Product List | Glossary On
Versions: 1 2 3 4 5 6 7 8 9 10 11 12 13 14 15 16 17
000
FTUS43 KFGF 021100
TAFFAR
TAF
KFAR 021120Z 0212/0312 19014KT P6SM SKC
     FM021800 18018G28KT P6SM SCT250
     FM022100 18018G28KT P6SM BKN080
     FM030200 17018KT P6SM BKN080=

USA.gov is the U.S. government's official web portal to all federal, state and local government web resources and services.